sensor_id;sensor_type;location;lat;lon;timestamp;pressure;altitude;pressure_sealevel;temperature;humidity
7662;BME280;30314;48.184;11.510;2023-09-30T00:00:07;96700.34;;;16.47;100.00
7662;BME280;30314;48.184;11.510;2023-09-30T00:02:38;96698.72;;;16.37;100.00
7662;BME280;30314;48.184;11.510;2023-09-30T00:05:05;96701.19;;;16.33;100.00
7662;BME280;30314;48.184;11.510;2023-09-30T00:07:32;96699.13;;;16.30;100.00
7662;BME280;30314;48.184;11.510;2023-09-30T00:09:59;96711.19;;;16.28;100.00
7662;BME280;30314;48.184;11.510;2023-09-30T00:12:26;96712.13;;;16.23;100.00
7662;BME280;30314;48.184;11.510;2023-09-30T00:14:54;96709.25;;;16.19;100.00
7662;BME280;30314;48.184;11.510;2023-09-30T00:17:21;96704.69;;;16.20;100.00
7662;BME280;30314;48.184;11.510;2023-09-30T00:19:48;96701.88;;;16.16;100.00
7662;BME280;30314;48.184;11.510;2023-09-30T00:22:14;96701.56;;;16.18;100.00
7662;BME280;30314;48.184;11.510;2023-09-30T00:24:41;96713.59;;;16.15;100.00
7662;BME280;30314;48.184;11.510;2023-09-30T00:27:08;96712.13;;;16.09;100.00
7662;BME280;30314;48.184;11.510;2023-09-30T00:29:34;96704.44;;;16.08;100.00
7662;BME280;30314;48.184;11.510;2023-09-30T00:32:02;96722.50;;;16.11;100.00
7662;BME280;30314;48.184;11.510;2023-09-30T00:34:35;96714.81;;;16.09;100.00
7662;BME280;30314;48.184;11.510;2023-09-30T00:37:02;96724.84;;;16.12;100.00
7662;BME280;30314;48.184;11.510;2023-09-30T00:39:29;96717.06;;;16.16;100.00
7662;BME280;30314;48.184;11.510;2023-09-30T00:41:57;96711.75;;;16.02;100.00
7662;BME280;30314;48.184;11.510;2023-09-30T00:44:28;96702.22;;;15.87;100.00
7662;BME280;30314;48.184;11.510;2023-09-30T00:46:55;96709.41;;;15.86;100.00
7662;BME280;30314;48.184;11.510;2023-09-30T00:49:25;96711.88;;;15.83;100.00
7662;BME280;30314;48.184;11.510;2023-09-30T00:51:53;96689.31;;;15.66;100.00
7662;BME280;30314;48.184;11.510;2023-09-30T00:54:23;96712.88;;;15.73;100.00
7662;BME280;30314;48.184;11.510;2023-09-30T00:56:52;96719.50;;;15.75;100.00
7662;BME280;30314;48.184;11.510;2023-09-30T00:59:22;96715.06;;;15.71;100.00
7662;BME280;30314;48.184;11.510;2023-09-30T01:01:49;96717.53;;;15.67;100.00
7662;BME280;30314;48.184;11.510;2023-09-30T01:04:16;96722.97;;;15.62;100.00
7662;BME280;30314;48.184;11.510;2023-09-30T01:06:44;96717.25;;;15.55;100.00
7662;BME280;30314;48.184;11.510;2023-09-30T01:09:10;96727.13;;;15.54;100.00
7662;BME280;30314;48.184;11.510;2023-09-30T01:11:39;96730.66;;;15.49;100.00
7662;BME280;30314;48.184;11.510;2023-09-30T01:14:27;96738.25;;;15.56;100.00
7662;BME280;30314;48.184;11.510;2023-09-30T01:16:54;96736.38;;;15.57;100.00
7662;BME280;30314;48.184;11.510;2023-09-30T01:19:21;96724.94;;;15.56;100.00
7662;BME280;30314;48.184;11.510;2023-09-30T01:21:57;96721.78;;;15.54;100.00
7662;BME280;30314;48.184;11.510;2023-09-30T01:24:28;96721.59;;;15.50;100.00
7662;BME280;30314;48.184;11.510;2023-09-30T01:26:57;96697.13;;;15.48;100.00
7662;BME280;30314;48.184;11.510;2023-09-30T01:29:24;96708.97;;;15.56;100.00
7662;BME280;30314;48.184;11.510;2023-09-30T01:31:52;96690.84;;;15.44;100.00
7662;BME280;30314;48.184;11.510;2023-09-30T01:34:21;96705.00;;;15.54;100.00
7662;BME280;30314;48.184;11.510;2023-09-30T01:36:48;96718.81;;;15.56;100.00
7662;BME280;30314;48.184;11.510;2023-09-30T01:39:15;96713.88;;;15.49;100.00
7662;BME280;30314;48.184;11.510;2023-09-30T01:41:42;96733.03;;;15.51;100.00
7662;BME280;30314;48.184;11.510;2023-09-30T01:44:09;96719.59;;;15.42;100.00
7662;BME280;30314;48.184;11.510;2023-09-30T01:46:36;96722.34;;;15.37;100.00
7662;BME280;30314;48.184;11.510;2023-09-30T01:49:03;96721.56;;;15.36;100.00
7662;BME280;30314;48.184;11.510;2023-09-30T01:51:32;96724.78;;;15.33;100.00
7662;BME280;30314;48.184;11.510;2023-09-30T01:53:59;96736.72;;;15.36;100.00
7662;BME280;30314;48.184;11.510;2023-09-30T01:56:25;96724.69;;;15.25;100.00
7662;BME280;30314;48.184;11.510;2023-09-30T01:58:52;96725.50;;;15.25;100.00
7662;BME280;30314;48.184;11.510;2023-09-30T02:01:21;96725.78;;;15.24;100.00
7662;BME280;30314;48.184;11.510;2023-09-30T02:03:50;96734.56;;;15.24;100.00
7662;BME280;30314;48.184;11.510;2023-09-30T02:06:16;96720.63;;;15.13;100.00
7662;BME280;30314;48.184;11.510;2023-09-30T02:08:43;96719.06;;;15.12;100.00
7662;BME280;30314;48.184;11.510;2023-09-30T02:11:11;96722.31;;;15.09;100.00
7662;BME280;30314;48.184;11.510;2023-09-30T02:13:43;96729.41;;;15.14;100.00
7662;BME280;30314;48.184;11.510;2023-09-30T02:16:12;96720.75;;;15.08;100.00
7662;BME280;30314;48.184;11.510;2023-09-30T02:18:41;96721.81;;;15.07;100.00
7662;BME280;30314;48.184;11.510;2023-09-30T02:21:08;96722.59;;;15.07;100.00
7662;BME280;30314;48.184;11.510;2023-09-30T02:23:35;96730.19;;;15.14;100.00
7662;BME280;30314;48.184;11.510;2023-09-30T02:26:02;96726.97;;;15.17;100.00
7662;BME280;30314;48.184;11.510;2023-09-30T02:28:29;96734.34;;;15.20;100.00
7662;BME280;30314;48.184;11.510;2023-09-30T02:31:01;96729.31;;;15.19;100.00
7662;BME280;30314;48.184;11.510;2023-09-30T02:33:28;96729.25;;;15.24;100.00
7662;BME280;30314;48.184;11.510;2023-09-30T02:35:55;96728.66;;;15.27;100.00
7662;BME280;30314;48.184;11.510;2023-09-30T02:38:21;96724.31;;;15.31;100.00
7662;BME280;30314;48.184;11.510;2023-09-30T02:40:49;96727.78;;;15.32;100.00
7662;BME280;30314;48.184;11.510;2023-09-30T02:43:18;96731.41;;;15.36;100.00
7662;BME280;30314;48.184;11.510;2023-09-30T02:45:45;96718.38;;;15.34;100.00
7662;BME280;30314;48.184;11.510;2023-09-30T02:48:12;96726.56;;;15.38;100.00
7662;BME280;30314;48.184;11.510;2023-09-30T02:50:43;96723.91;;;15.38;100.00
7662;BME280;30314;48.184;11.510;2023-09-30T02:53:13;96726.56;;;15.38;100.00
7662;BME280;30314;48.184;11.510;2023-09-30T02:55:40;96726.09;;;15.36;100.00
7662;BME280;30314;48.184;11.510;2023-09-30T02:58:10;96722.34;;;15.37;100.00
7662;BME280;30314;48.184;11.510;2023-09-30T03:00:37;96733.59;;;15.34;100.00
7662;BME280;30314;48.184;11.510;2023-09-30T03:03:04;96728.25;;;15.34;100.00
7662;BME280;30314;48.184;11.510;2023-09-30T03:05:31;96732.78;;;15.33;100.00
7662;BME280;30314;48.184;11.510;2023-09-30T03:08:00;96729.63;;;15.31;100.00
7662;BME280;30314;48.184;11.510;2023-09-30T03:10:31;96731.50;;;15.31;100.00
7662;BME280;30314;48.184;11.510;2023-09-30T03:12:57;96719.59;;;15.28;100.00
7662;BME280;30314;48.184;11.510;2023-09-30T03:15:30;96713.47;;;15.28;100.00
7662;BME280;30314;48.184;11.510;2023-09-30T03:17:58;96723.59;;;15.26;100.00
7662;BME280;30314;48.184;11.510;2023-09-30T03:20:26;96721.66;;;15.31;100.00
7662;BME280;30314;48.184;11.510;2023-09-30T03:22:53;96720.88;;;15.31;100.00
7662;BME280;30314;48.184;11.510;2023-09-30T03:25:20;96728.97;;;15.40;100.00
7662;BME280;30314;48.184;11.510;2023-09-30T03:27:47;96732.50;;;15.35;100.00
7662;BME280;30314;48.184;11.510;2023-09-30T03:30:15;96743.63;;;15.37;100.00
7662;BME280;30314;48.184;11.510;2023-09-30T03:32:43;96743.75;;;15.32;100.00
7662;BME280;30314;48.184;11.510;2023-09-30T03:35:11;96743.03;;;15.26;100.00
7662;BME280;30314;48.184;11.510;2023-09-30T03:37:44;96745.38;;;15.28;100.00
7662;BME280;30314;48.184;11.510;2023-09-30T03:40:11;96744.91;;;15.26;100.00
7662;BME280;30314;48.184;11.510;2023-09-30T03:42:41;96742.53;;;15.24;100.00
7662;BME280;30314;48.184;11.510;2023-09-30T03:45:11;96735.06;;;15.26;100.00
7662;BME280;30314;48.184;11.510;2023-09-30T03:47:41;96726.28;;;15.26;100.00
7662;BME280;30314;48.184;11.510;2023-09-30T03:50:08;96721.75;;;15.26;100.00
7662;BME280;30314;48.184;11.510;2023-09-30T03:52:43;96722.53;;;15.27;100.00
7662;BME280;30314;48.184;11.510;2023-09-30T03:55:14;96737.63;;;15.31;100.00
7662;BME280;30314;48.184;11.510;2023-09-30T03:57:42;96731.22;;;15.32;100.00
7662;BME280;30314;48.184;11.510;2023-09-30T04:00:09;96734.19;;;15.31;100.00
7662;BME280;30314;48.184;11.510;2023-09-30T04:02:42;96734.94;;;15.31;100.00
7662;BME280;30314;48.184;11.510;2023-09-30T04:05:10;96720.34;;;15.29;100.00
7662;BME280;30314;48.184;11.510;2023-09-30T04:07:38;96722.44;;;15.32;100.00
7662;BME280;30314;48.184;11.510;2023-09-30T04:10:05;96725.50;;;15.39;100.00
7662;BME280;30314;48.184;11.510;2023-09-30T04:12:32;96728.16;;;15.39;100.00
7662;BME280;30314;48.184;11.510;2023-09-30T04:14:59;96731.41;;;15.36;100.00
7662;BME280;30314;48.184;11.510;2023-09-30T04:17:26;96718.59;;;15.38;100.00
7662;BME280;30314;48.184;11.510;2023-09-30T04:19:53;96718.38;;;15.34;100.00
7662;BME280;30314;48.184;11.510;2023-09-30T04:22:20;96737.56;;;15.50;100.00
7662;BME280;30314;48.184;11.510;2023-09-30T04:24:47;96738.16;;;15.47;100.00
7662;BME280;30314;48.184;11.510;2023-09-30T04:27:19;96721.75;;;15.40;100.00
7662;BME280;30314;48.184;11.510;2023-09-30T04:29:46;96729.19;;;15.43;100.00
7662;BME280;30314;48.184;11.510;2023-09-30T04:32:13;96737.34;;;15.47;100.00
7662;BME280;30314;48.184;11.510;2023-09-30T04:34:40;96730.31;;;15.37;100.00
7662;BME280;30314;48.184;11.510;2023-09-30T04:37:10;96735.38;;;15.39;100.00
7662;BME280;30314;48.184;11.510;2023-09-30T04:39:36;96737.72;;;15.40;100.00
7662;BME280;30314;48.184;11.510;2023-09-30T04:42:03;96748.81;;;15.47;100.00
7662;BME280;30314;48.184;11.510;2023-09-30T04:44:31;96740.91;;;15.42;100.00
7662;BME280;30314;48.184;11.510;2023-09-30T04:46:58;96733.78;;;15.38;100.00
7662;BME280;30314;48.184;11.510;2023-09-30T04:49:24;96751.47;;;15.47;100.00
7662;BME280;30314;48.184;11.510;2023-09-30T04:51:51;96763.69;;;15.48;100.00
7662;BME280;30314;48.184;11.510;2023-09-30T04:54:17;96751.75;;;15.46;100.00
7662;BME280;30314;48.184;11.510;2023-09-30T04:56:44;96744.34;;;15.43;100.00
7662;BME280;30314;48.184;11.510;2023-09-30T04:59:13;96753.44;;;15.42;100.00
7662;BME280;30314;48.184;11.510;2023-09-30T05:01:40;96760.59;;;15.41;100.00
7662;BME280;30314;48.184;11.510;2023-09-30T05:04:07;96760.78;;;15.31;100.00
7662;BME280;30314;48.184;11.510;2023-09-30T05:06:33;96751.22;;;15.30;100.00
7662;BME280;30314;48.184;11.510;2023-09-30T05:09:00;96764.88;;;15.23;100.00
7662;BME280;30314;48.184;11.510;2023-09-30T05:11:27;96772.47;;;15.16;100.00
7662;BME280;30314;48.184;11.510;2023-09-30T05:13:53;96784.78;;;15.12;100.00
7662;BME280;30314;48.184;11.510;2023-09-30T05:16:21;96797.38;;;15.06;100.00
7662;BME280;30314;48.184;11.510;2023-09-30T05:18:48;96779.06;;;15.04;100.00
7662;BME280;30314;48.184;11.510;2023-09-30T05:21:15;96780.41;;;15.02;100.00
7662;BME280;30314;48.184;11.510;2023-09-30T05:23:42;96780.22;;;14.98;100.00
7662;BME280;30314;48.184;11.510;2023-09-30T05:26:08;96779.63;;;15.01;100.00
7662;BME280;30314;48.184;11.510;2023-09-30T05:28:35;96771.34;;;15.03;100.00
7662;BME280;30314;48.184;11.510;2023-09-30T05:31:02;96772.44;;;15.02;100.00
7662;BME280;30314;48.184;11.510;2023-09-30T05:33:29;96768.41;;;15.04;100.00
7662;BME280;30314;48.184;11.510;2023-09-30T05:35:57;96780.94;;;15.04;100.00
7662;BME280;30314;48.184;11.510;2023-09-30T05:38:23;96788.69;;;15.00;100.00
7662;BME280;30314;48.184;11.510;2023-09-30T05:40:51;96792.72;;;14.98;100.00
7662;BME280;30314;48.184;11.510;2023-09-30T05:43:17;96796.34;;;14.88;100.00
7662;BME280;30314;48.184;11.510;2023-09-30T05:45:44;96806.69;;;14.89;100.00
7662;BME280;30314;48.184;11.510;2023-09-30T05:48:21;96818.59;;;14.92;100.00
7662;BME280;30314;48.184;11.510;2023-09-30T05:50:48;96819.91;;;14.94;100.00
7662;BME280;30314;48.184;11.510;2023-09-30T05:53:15;96817.84;;;14.91;100.00
7662;BME280;30314;48.184;11.510;2023-09-30T05:55:41;96825.50;;;14.93;100.00
7662;BME280;30314;48.184;11.510;2023-09-30T05:58:09;96809.75;;;14.97;100.00
7662;BME280;30314;48.184;11.510;2023-09-30T06:00:36;96817.75;;;14.97;100.00
7662;BME280;30314;48.184;11.510;2023-09-30T06:03:03;96809.97;;;15.00;100.00
7662;BME280;30314;48.184;11.510;2023-09-30T06:05:34;96804.06;;;15.03;100.00
7662;BME280;30314;48.184;11.510;2023-09-30T06:08:04;96808.81;;;15.06;100.00
7662;BME280;30314;48.184;11.510;2023-09-30T06:10:32;96817.28;;;15.08;100.00
7662;BME280;30314;48.184;11.510;2023-09-30T06:12:58;96808.94;;;15.15;100.00
7662;BME280;30314;48.184;11.510;2023-09-30T06:15:26;96818.19;;;15.18;100.00
7662;BME280;30314;48.184;11.510;2023-09-30T06:17:54;96822.22;;;15.15;100.00
7662;BME280;30314;48.184;11.510;2023-09-30T06:20:22;96826.41;;;15.21;100.00
7662;BME280;30314;48.184;11.510;2023-09-30T06:22:49;96811.03;;;15.18;100.00
7662;BME280;30314;48.184;11.510;2023-09-30T06:25:16;96823.44;;;15.23;100.00
7662;BME280;30314;48.184;11.510;2023-09-30T06:27:44;96829.78;;;15.27;100.00
7662;BME280;30314;48.184;11.510;2023-09-30T06:30:12;96822.88;;;15.26;100.00
7662;BME280;30314;48.184;11.510;2023-09-30T06:32:40;96832.91;;;15.29;100.00
7662;BME280;30314;48.184;11.510;2023-09-30T06:35:07;96850.25;;;15.27;100.00
7662;BME280;30314;48.184;11.510;2023-09-30T06:37:37;96855.78;;;15.30;100.00
7662;BME280;30314;48.184;11.510;2023-09-30T06:40:08;96861.38;;;15.29;100.00
7662;BME280;30314;48.184;11.510;2023-09-30T06:42:36;96848.28;;;15.32;100.00
7662;BME280;30314;48.184;11.510;2023-09-30T06:45:04;96843.28;;;15.31;100.00
7662;BME280;30314;48.184;11.510;2023-09-30T06:47:34;96849.09;;;15.33;100.00
7662;BME280;30314;48.184;11.510;2023-09-30T06:50:01;96849.97;;;15.28;100.00
7662;BME280;30314;48.184;11.510;2023-09-30T06:52:42;96852.03;;;15.31;100.00
7662;BME280;30314;48.184;11.510;2023-09-30T06:55:09;96852.41;;;15.25;100.00
7662;BME280;30314;48.184;11.510;2023-09-30T06:57:37;96859.31;;;15.26;100.00
7662;BME280;30314;48.184;11.510;2023-09-30T07:00:11;96864.06;;;15.29;100.00
7662;BME280;30314;48.184;11.510;2023-09-30T07:02:39;96846.22;;;15.29;100.00
7662;BME280;30314;48.184;11.510;2023-09-30T07:05:11;96853.63;;;15.32;100.00
7662;BME280;30314;48.184;11.510;2023-09-30T07:07:39;96868.72;;;15.37;100.00
7662;BME280;30314;48.184;11.510;2023-09-30T07:10:06;96875.94;;;15.36;100.00
7662;BME280;30314;48.184;11.510;2023-09-30T07:12:33;96865.72;;;15.44;100.00
7662;BME280;30314;48.184;11.510;2023-09-30T07:15:03;96864.03;;;15.48;100.00
7662;BME280;30314;48.184;11.510;2023-09-30T07:17:32;96875.00;;;15.46;100.00
7662;BME280;30314;48.184;11.510;2023-09-30T07:19:58;96876.06;;;15.45;100.00
7662;BME280;30314;48.184;11.510;2023-09-30T07:22:26;96872.34;;;15.46;100.00
7662;BME280;30314;48.184;11.510;2023-09-30T07:25:12;96880.53;;;15.64;100.00
7662;BME280;30314;48.184;11.510;2023-09-30T07:27:42;96877.00;;;15.69;100.00
7662;BME280;30314;48.184;11.510;2023-09-30T07:30:09;96875.63;;;15.71;100.00
7662;BME280;30314;48.184;11.510;2023-09-30T07:32:38;96886.28;;;15.85;100.00
7662;BME280;30314;48.184;11.510;2023-09-30T07:35:05;96894.59;;;15.84;100.00
7662;BME280;30314;48.184;11.510;2023-09-30T07:37:32;96897.34;;;16.06;100.00
7662;BME280;30314;48.184;11.510;2023-09-30T07:39:59;96884.91;;;16.02;100.00
7662;BME280;30314;48.184;11.510;2023-09-30T07:42:26;96896.88;;;16.04;100.00
7662;BME280;30314;48.184;11.510;2023-09-30T07:44:53;96899.72;;;16.36;100.00
7662;BME280;30314;48.184;11.510;2023-09-30T07:47:20;96904.06;;;16.46;100.00
7662;BME280;30314;48.184;11.510;2023-09-30T07:49:47;96903.88;;;16.28;100.00
7662;BME280;30314;48.184;11.510;2023-09-30T07:52:14;96900.53;;;16.23;100.00
7662;BME280;30314;48.184;11.510;2023-09-30T07:54:41;96902.69;;;16.20;100.00
7662;BME280;30314;48.184;11.510;2023-09-30T07:57:08;96905.56;;;16.24;100.00
7662;BME280;30314;48.184;11.510;2023-09-30T07:59:35;96910.00;;;16.15;100.00
7662;BME280;30314;48.184;11.510;2023-09-30T08:02:01;96918.50;;;16.03;100.00
7662;BME280;30314;48.184;11.510;2023-09-30T08:04:31;96923.31;;;16.15;100.00
7662;BME280;30314;48.184;11.510;2023-09-30T08:06:57;96928.38;;;16.30;100.00
7662;BME280;30314;48.184;11.510;2023-09-30T08:09:24;96924.59;;;16.31;100.00
7662;BME280;30314;48.184;11.510;2023-09-30T08:11:54;96916.63;;;16.31;100.00
7662;BME280;30314;48.184;11.510;2023-09-30T08:14:20;96919.69;;;16.39;100.00
7662;BME280;30314;48.184;11.510;2023-09-30T08:16:47;96909.03;;;16.39;100.00
7662;BME280;30314;48.184;11.510;2023-09-30T08:19:15;96906.03;;;16.40;100.00
7662;BME280;30314;48.184;11.510;2023-09-30T08:21:42;96904.25;;;16.49;100.00
7662;BME280;30314;48.184;11.510;2023-09-30T08:24:09;96898.84;;;16.41;100.00
7662;BME280;30314;48.184;11.510;2023-09-30T08:26:35;96898.03;;;16.40;100.00
7662;BME280;30314;48.184;11.510;2023-09-30T08:29:02;96897.75;;;16.42;100.00
7662;BME280;30314;48.184;11.510;2023-09-30T08:31:29;96911.97;;;16.51;100.00
7662;BME280;30314;48.184;11.510;2023-09-30T08:33:56;96921.56;;;16.52;100.00
7662;BME280;30314;48.184;11.510;2023-09-30T08:36:23;96918.88;;;16.52;100.00
7662;BME280;30314;48.184;11.510;2023-09-30T08:38:51;96923.91;;;16.54;100.00
7662;BME280;30314;48.184;11.510;2023-09-30T08:41:30;96940.50;;;16.51;100.00
7662;BME280;30314;48.184;11.510;2023-09-30T08:43:59;96943.38;;;16.54;100.00
7662;BME280;30314;48.184;11.510;2023-09-30T08:46:30;96938.81;;;16.55;100.00
7662;BME280;30314;48.184;11.510;2023-09-30T08:48:58;96935.84;;;16.56;100.00
7662;BME280;30314;48.184;11.510;2023-09-30T08:51:26;96942.56;;;16.54;100.00
7662;BME280;30314;48.184;11.510;2023-09-30T08:53:53;96947.00;;;16.58;100.00
7662;BME280;30314;48.184;11.510;2023-09-30T08:56:24;96936.28;;;16.64;100.00
7662;BME280;30314;48.184;11.510;2023-09-30T08:58:52;96932.09;;;16.57;100.00
7662;BME280;30314;48.184;11.510;2023-09-30T09:01:19;96929.66;;;16.61;100.00
7662;BME280;30314;48.184;11.510;2023-09-30T09:03:46;96920.97;;;16.69;100.00
7662;BME280;30314;48.184;11.510;2023-09-30T09:06:24;96913.06;;;16.78;100.00
7662;BME280;30314;48.184;11.510;2023-09-30T09:08:51;96908.28;;;16.75;100.00
7662;BME280;30314;48.184;11.510;2023-09-30T09:11:18;96918.88;;;16.80;100.00
7662;BME280;30314;48.184;11.510;2023-09-30T09:13:49;96919.22;;;16.87;100.00
7662;BME280;30314;48.184;11.510;2023-09-30T09:16:17;96919.22;;;16.87;100.00
7662;BME280;30314;48.184;11.510;2023-09-30T09:18:46;96917.44;;;16.97;100.00
7662;BME280;30314;48.184;11.510;2023-09-30T09:21:20;96921.06;;;17.01;100.00
7662;BME280;30314;48.184;11.510;2023-09-30T09:23:50;96923.38;;;16.94;100.00
7662;BME280;30314;48.184;11.510;2023-09-30T09:26:25;96940.69;;;16.96;100.00
7662;BME280;30314;48.184;11.510;2023-09-30T09:29:03;96941.56;;;16.92;100.00
7662;BME280;30314;48.184;11.510;2023-09-30T09:31:35;96938.00;;;16.96;100.00
7662;BME280;30314;48.184;11.510;2023-09-30T09:34:03;96946.00;;;16.96;100.00
7662;BME280;30314;48.184;11.510;2023-09-30T09:36:44;96936.22;;;16.92;100.00
7662;BME280;30314;48.184;11.510;2023-09-30T09:39:12;96927.91;;;16.93;100.00
7662;BME280;30314;48.184;11.510;2023-09-30T09:41:50;96907.97;;;16.90;100.00
7662;BME280;30314;48.184;11.510;2023-09-30T09:44:21;96910.72;;;16.99;100.00
7662;BME280;30314;48.184;11.510;2023-09-30T09:46:49;96891.38;;;16.94;100.00
7662;BME280;30314;48.184;11.510;2023-09-30T09:49:20;96898.22;;;17.09;100.00
7662;BME280;30314;48.184;11.510;2023-09-30T09:51:48;96897.69;;;17.21;100.00
7662;BME280;30314;48.184;11.510;2023-09-30T09:54:16;96866.19;;;17.09;100.00
7662;BME280;30314;48.184;11.510;2023-09-30T09:56:46;96878.22;;;17.20;100.00
7662;BME280;30314;48.184;11.510;2023-09-30T09:59:17;96893.13;;;17.21;100.00
7662;BME280;30314;48.184;11.510;2023-09-30T10:01:43;96898.66;;;17.25;100.00
7662;BME280;30314;48.184;11.510;2023-09-30T10:04:12;96901.66;;;17.23;100.00
7662;BME280;30314;48.184;11.510;2023-09-30T10:06:44;96904.84;;;17.34;100.00
7662;BME280;30314;48.184;11.510;2023-09-30T10:09:16;96910.47;;;17.32;100.00
7662;BME280;30314;48.184;11.510;2023-09-30T10:11:44;96894.00;;;17.30;100.00
7662;BME280;30314;48.184;11.510;2023-09-30T10:14:32;96885.88;;;17.36;100.00
7662;BME280;30314;48.184;11.510;2023-09-30T10:17:00;96889.56;;;17.49;100.00
7662;BME280;30314;48.184;11.510;2023-09-30T10:19:28;96892.28;;;17.57;100.00
7662;BME280;30314;48.184;11.510;2023-09-30T10:24:58;96904.16;;;17.74;100.00
7662;BME280;30314;48.184;11.510;2023-09-30T10:37:45;96877.16;;;17.75;100.00
7662;BME280;30314;48.184;11.510;2023-09-30T10:40:28;96876.53;;;17.79;100.00
7662;BME280;30314;48.184;11.510;2023-09-30T10:42:55;96877.63;;;17.78;100.00
7662;BME280;30314;48.184;11.510;2023-09-30T10:51:11;96887.41;;;17.82;100.00
7662;BME280;30314;48.184;11.510;2023-09-30T10:53:43;96887.91;;;17.93;100.00
7662;BME280;30314;48.184;11.510;2023-09-30T10:56:11;96886.16;;;17.88;100.00
7662;BME280;30314;48.184;11.510;2023-09-30T11:01:10;96893.22;;;17.84;100.00
7662;BME280;30314;48.184;11.510;2023-09-30T11:03:37;96900.81;;;18.00;100.00
7662;BME280;30314;48.184;11.510;2023-09-30T11:06:04;96890.34;;;18.12;100.00
7662;BME280;30314;48.184;11.510;2023-09-30T11:08:35;96882.47;;;18.07;100.00
7662;BME280;30314;48.184;11.510;2023-09-30T11:11:02;96863.91;;;18.02;95.60
7662;BME280;30314;48.184;11.510;2023-09-30T11:13:33;96870.78;;;17.94;100.00
7662;BME280;30314;48.184;11.510;2023-09-30T11:16:04;96867.34;;;17.94;100.00
7662;BME280;30314;48.184;11.510;2023-09-30T11:18:32;96871.28;;;17.96;100.00
7662;BME280;30314;48.184;11.510;2023-09-30T11:21:11;96874.28;;;18.03;100.00
7662;BME280;30314;48.184;11.510;2023-09-30T11:23:40;96875.41;;;18.11;100.00
7662;BME280;30314;48.184;11.510;2023-09-30T11:26:07;96876.22;;;18.21;100.00
7662;BME280;30314;48.184;11.510;2023-09-30T11:28:39;96872.00;;;18.28;97.05
7662;BME280;30314;48.184;11.510;2023-09-30T11:31:11;96872.47;;;18.30;99.13
7662;BME280;30314;48.184;11.510;2023-09-30T11:33:52;96872.81;;;18.29;100.00
7662;BME280;30314;48.184;11.510;2023-09-30T11:36:20;96873.56;;;18.29;95.32
7662;BME280;30314;48.184;11.510;2023-09-30T11:38:49;96878.44;;;18.19;98.62
7662;BME280;30314;48.184;11.510;2023-09-30T11:41:17;96885.44;;;18.06;97.17
7662;BME280;30314;48.184;11.510;2023-09-30T11:46:31;96881.69;;;18.07;99.62
7662;BME280;30314;48.184;11.510;2023-09-30T11:49:02;96884.50;;;18.01;95.58
7662;BME280;30314;48.184;11.510;2023-09-30T11:51:29;96883.88;;;18.05;94.68
7662;BME280;30314;48.184;11.510;2023-09-30T11:53:57;96868.94;;;18.03;94.18
7662;BME280;30314;48.184;11.510;2023-09-30T11:56:27;96858.53;;;17.93;94.47
7662;BME280;30314;48.184;11.510;2023-09-30T11:58:57;96867.03;;;17.95;92.60
7662;BME280;30314;48.184;11.510;2023-09-30T12:01:25;96854.59;;;17.91;95.15
7662;BME280;30314;48.184;11.510;2023-09-30T12:03:52;96845.66;;;17.95;96.27
7662;BME280;30314;48.184;11.510;2023-09-30T12:06:24;96828.97;;;17.89;93.16
7662;BME280;30314;48.184;11.510;2023-09-30T12:08:51;96818.88;;;17.86;95.63
7662;BME280;30314;48.184;11.510;2023-09-30T12:11:18;96825.81;;;17.87;97.11
7662;BME280;30314;48.184;11.510;2023-09-30T12:13:45;96819.69;;;17.87;96.48
7662;BME280;30314;48.184;11.510;2023-09-30T12:16:18;96823.09;;;17.79;78.56
7662;BME280;30314;48.184;11.510;2023-09-30T12:18:45;96821.09;;;17.84;82.38
7662;BME280;30314;48.184;11.510;2023-09-30T12:21:12;96821.09;;;17.84;83.88
7662;BME280;30314;48.184;11.510;2023-09-30T12:23:40;96811.94;;;17.77;86.22
7662;BME280;30314;48.184;11.510;2023-09-30T12:26:06;96824.22;;;17.86;82.73
7662;BME280;30314;48.184;11.510;2023-09-30T12:28:40;96821.88;;;17.85;83.21
7662;BME280;30314;48.184;11.510;2023-09-30T12:31:07;96824.56;;;17.94;85.16
7662;BME280;30314;48.184;11.510;2023-09-30T12:33:34;96823.69;;;18.07;86.05
7662;BME280;30314;48.184;11.510;2023-09-30T12:36:01;96821.66;;;18.13;85.82
7662;BME280;30314;48.184;11.510;2023-09-30T12:38:28;96813.16;;;18.20;82.78
7662;BME280;30314;48.184;11.510;2023-09-30T12:40:56;96819.00;;;18.22;84.67
7662;BME280;30314;48.184;11.510;2023-09-30T12:43:22;96822.94;;;18.24;87.11
7662;BME280;30314;48.184;11.510;2023-09-30T12:45:49;96808.75;;;18.15;91.42
7662;BME280;30314;48.184;11.510;2023-09-30T12:48:16;96816.78;;;18.15;92.54
7662;BME280;30314;48.184;11.510;2023-09-30T12:50:44;96818.03;;;18.09;93.66
7662;BME280;30314;48.184;11.510;2023-09-30T12:53:11;96812.50;;;18.05;95.30
7662;BME280;30314;48.184;11.510;2023-09-30T12:55:38;96817.84;;;18.05;95.14
7662;BME280;30314;48.184;11.510;2023-09-30T12:58:04;96821.66;;;18.13;90.20
7662;BME280;30314;48.184;11.510;2023-09-30T13:00:32;96820.06;;;18.03;90.67
7662;BME280;30314;48.184;11.510;2023-09-30T13:03:03;96823.19;;;17.96;88.16
7662;BME280;30314;48.184;11.510;2023-09-30T13:05:30;96830.69;;;17.94;90.76
7662;BME280;30314;48.184;11.510;2023-09-30T13:07:57;96836.03;;;17.94;92.84
7662;BME280;30314;48.184;11.510;2023-09-30T13:10:24;96826.31;;;17.89;92.08
7662;BME280;30314;48.184;11.510;2023-09-30T13:12:52;96829.44;;;17.92;90.85
7662;BME280;30314;48.184;11.510;2023-09-30T13:15:21;96828.81;;;17.95;93.29
7662;BME280;30314;48.184;11.510;2023-09-30T13:17:50;96834.81;;;18.00;94.20
7662;BME280;30314;48.184;11.510;2023-09-30T13:20:17;96816.41;;;17.99;93.68
7662;BME280;30314;48.184;11.510;2023-09-30T13:22:44;96811.41;;;18.06;95.28